Jupiter, FL

7:27 PM EDT on July 31, 2015 (GMT -0400)
JUPITER RIVER | | Change Station
CLOSE
Current Station
Personal Weather Station
Location: Jupiter, FL
Elevation: 14 ft
Nearby Weather Stations

Elev 14 ft 26.93 °N, 80.11 °W | Updated 27 minutes ago

Rain
Rain
73.1 °F
Feels Like 73.1 °F
N
3.0
Wind Variable Wind from WNW
Gusts 3.0 mph

Today
High -- | Low -- °F
--% Chance of Precip.
Yesterday
High -- | Low -- °F
Precip. -- in
6:44 AM 8:09 PM
Full, 100% visible
Pressure 30.07 in
Visibility 0.5 miles
Clouds Scattered Clouds 2300 ft
Mostly Cloudy 3000 ft
Overcast 5500 ft
Dew Point 72 °F
Humidity 95%
Rainfall 0.73 in
Snow Depth Not available.
UV 0.0 out of 12
Pollen .50 out of 12
Air Quality Not available.
Flu Activity Not available.
SPECI KPBI 312321Z 32011KT 1/2SM R10L/2600VP6000FT +TSRA BR SCT023 BKN030CB OVC055 22/21 A3007 RMK AO2 OCNL LTGICCG OHD-ALQDS TS OHD-ALQDS MOV NE P0065 T02220211

More Conditions Fewer Conditions

Pressure 30.07 in
Visibility 0.5 miles
Clouds Scattered Clouds 2300 ft
Mostly Cloudy 3000 ft
Overcast 5500 ft
Dew Point 72 °F
Humidity 95%
Rainfall 0.73 in
Snow Depth Not available.
UV 0.0 out of 12
Pollen .50 out of 12
Air Quality Not available.
Flu Activity Not available.
SPECI KPBI 312321Z 32011KT 1/2SM R10L/2600VP6000FT +TSRA BR SCT023 BKN030CB OVC055 22/21 A3007 RMK AO2 OCNL LTGICCG OHD-ALQDS TS OHD-ALQDS MOV NE P0065 T02220211

More Conditions Fewer Conditions

10-Day Weather Forecast

×

Almanac

Astronomy

Jul. 31, 2015 Rise Set
Actual Time
Civil Twilight
Nautical Twilight
Astronomical Twilight
Moon
Length of Visible Light
Length of Day
Tomorrow will be .
, % of the Moon is Illuminated

Today's Extremes

State Highs State Lows

Community

WunderPhotos

Upload Photos

1,842,767 photos uploaded!

WunderBlogs® & News

Nearby

Air Quality

  Air Quality AQ Index Pollutant
Not available.

Snow Depth

Station Depth Elevation

Earthquake Activity

City Distance Mag. Time & Date
Minimum magnitude displayed is 2.5.

Coastal Water Temperatures

Place Temperature

Stations

Nearby Weather Stations

Station Location Temp. Windchill Dew Point Humidity Wind Precip. Elev Updated Type